sensor_id;sensor_type;location;lat;lon;timestamp;temperature;humidity
13928;DHT22;7036;50.834;4.718;2022-11-20T00:01:17;19.50;50.40
13928;DHT22;7036;50.834;4.718;2022-11-20T00:03:42;19.50;50.40
13928;DHT22;7036;50.834;4.718;2022-11-20T00:06:14;19.50;50.60
13928;DHT22;7036;50.834;4.718;2022-11-20T00:08:40;19.50;50.40
13928;DHT22;7036;50.834;4.718;2022-11-20T00:11:09;19.50;50.60
13928;DHT22;7036;50.834;4.718;2022-11-20T00:13:36;19.50;50.60
13928;DHT22;7036;50.834;4.718;2022-11-20T00:16:04;19.50;50.60
13928;DHT22;7036;50.834;4.718;2022-11-20T00:18:32;19.40;50.50
13928;DHT22;7036;50.834;4.718;2022-11-20T00:21:00;19.50;50.60
13928;DHT22;7036;50.834;4.718;2022-11-20T00:23:28;19.40;50.50
13928;DHT22;7036;50.834;4.718;2022-11-20T00:25:56;19.40;50.50
13928;DHT22;7036;50.834;4.718;2022-11-20T00:28:23;19.40;50.40
13928;DHT22;7036;50.834;4.718;2022-11-20T00:30:50;19.40;50.50
13928;DHT22;7036;50.834;4.718;2022-11-20T00:33:18;19.30;50.50
13928;DHT22;7036;50.834;4.718;2022-11-20T00:35:46;19.40;50.60
13928;DHT22;7036;50.834;4.718;2022-11-20T00:38:14;19.40;50.50
13928;DHT22;7036;50.834;4.718;2022-11-20T00:40:42;19.40;50.50
13928;DHT22;7036;50.834;4.718;2022-11-20T00:43:09;19.30;50.30
13928;DHT22;7036;50.834;4.718;2022-11-20T00:45:37;19.40;50.40
13928;DHT22;7036;50.834;4.718;2022-11-20T00:48:04;19.30;50.50
13928;DHT22;7036;50.834;4.718;2022-11-20T00:50:32;19.30;50.40
13928;DHT22;7036;50.834;4.718;2022-11-20T00:53:00;19.30;50.50
13928;DHT22;7036;50.834;4.718;2022-11-20T00:55:28;19.30;50.50
13928;DHT22;7036;50.834;4.718;2022-11-20T00:57:56;19.30;50.60
13928;DHT22;7036;50.834;4.718;2022-11-20T01:00:24;19.20;50.50
13928;DHT22;7036;50.834;4.718;2022-11-20T01:02:51;19.20;50.60
13928;DHT22;7036;50.834;4.718;2022-11-20T01:05:19;19.20;50.60
13928;DHT22;7036;50.834;4.718;2022-11-20T01:07:47;19.20;50.50
13928;DHT22;7036;50.834;4.718;2022-11-20T01:10:15;19.20;50.50
13928;DHT22;7036;50.834;4.718;2022-11-20T01:12:43;19.20;50.60
13928;DHT22;7036;50.834;4.718;2022-11-20T01:15:11;19.20;50.50
13928;DHT22;7036;50.834;4.718;2022-11-20T01:17:38;19.20;50.50
13928;DHT22;7036;50.834;4.718;2022-11-20T01:20:05;19.20;50.50
13928;DHT22;7036;50.834;4.718;2022-11-20T01:22:32;19.20;50.50
13928;DHT22;7036;50.834;4.718;2022-11-20T01:25:00;19.20;50.60
13928;DHT22;7036;50.834;4.718;2022-11-20T01:27:28;19.10;50.60
13928;DHT22;7036;50.834;4.718;2022-11-20T01:29:55;19.10;50.40
13928;DHT22;7036;50.834;4.718;2022-11-20T01:32:23;19.10;50.50
13928;DHT22;7036;50.834;4.718;2022-11-20T01:34:50;19.10;50.50
13928;DHT22;7036;50.834;4.718;2022-11-20T01:37:18;19.10;50.60
13928;DHT22;7036;50.834;4.718;2022-11-20T01:39:47;19.10;50.60
13928;DHT22;7036;50.834;4.718;2022-11-20T01:42:13;19.10;50.50
13928;DHT22;7036;50.834;4.718;2022-11-20T01:44:54;19.10;50.50
13928;DHT22;7036;50.834;4.718;2022-11-20T01:47:34;19.10;50.60
13928;DHT22;7036;50.834;4.718;2022-11-20T01:49:59;19.10;50.60
13928;DHT22;7036;50.834;4.718;2022-11-20T01:52:33;19.10;50.60
13928;DHT22;7036;50.834;4.718;2022-11-20T01:55:09;19.10;50.60
13928;DHT22;7036;50.834;4.718;2022-11-20T01:57:35;19.00;50.60
13928;DHT22;7036;50.834;4.718;2022-11-20T02:00:07;19.00;50.70
13928;DHT22;7036;50.834;4.718;2022-11-20T02:02:34;19.00;50.60
13928;DHT22;7036;50.834;4.718;2022-11-20T02:05:02;19.00;50.60
13928;DHT22;7036;50.834;4.718;2022-11-20T02:07:28;19.00;50.60
13928;DHT22;7036;50.834;4.718;2022-11-20T02:09:56;19.00;50.70
13928;DHT22;7036;50.834;4.718;2022-11-20T02:12:25;19.00;51.20
13928;DHT22;7036;50.834;4.718;2022-11-20T02:15:10;19.00;50.50
13928;DHT22;7036;50.834;4.718;2022-11-20T02:17:38;19.00;50.70
13928;DHT22;7036;50.834;4.718;2022-11-20T02:20:06;19.00;50.70
13928;DHT22;7036;50.834;4.718;2022-11-20T02:22:38;19.00;50.60
13928;DHT22;7036;50.834;4.718;2022-11-20T02:25:03;19.00;50.60
13928;DHT22;7036;50.834;4.718;2022-11-20T02:27:30;19.00;50.60
13928;DHT22;7036;50.834;4.718;2022-11-20T02:30:00;19.00;50.70
13928;DHT22;7036;50.834;4.718;2022-11-20T02:32:26;18.90;50.70
13928;DHT22;7036;50.834;4.718;2022-11-20T02:34:54;18.90;50.70
13928;DHT22;7036;50.834;4.718;2022-11-20T02:37:22;18.90;50.60
13928;DHT22;7036;50.834;4.718;2022-11-20T02:39:49;18.90;50.60
13928;DHT22;7036;50.834;4.718;2022-11-20T02:42:17;18.90;50.60
13928;DHT22;7036;50.834;4.718;2022-11-20T02:44:44;18.90;50.60
13928;DHT22;7036;50.834;4.718;2022-11-20T02:47:11;18.90;50.60
13928;DHT22;7036;50.834;4.718;2022-11-20T02:49:41;18.90;50.60
13928;DHT22;7036;50.834;4.718;2022-11-20T02:52:08;18.90;50.60
13928;DHT22;7036;50.834;4.718;2022-11-20T02:54:36;18.90;50.70
13928;DHT22;7036;50.834;4.718;2022-11-20T02:57:03;18.90;50.60
13928;DHT22;7036;50.834;4.718;2022-11-20T02:59:30;18.90;50.70
13928;DHT22;7036;50.834;4.718;2022-11-20T03:01:58;18.80;50.70
13928;DHT22;7036;50.834;4.718;2022-11-20T03:04:26;18.80;50.80
13928;DHT22;7036;50.834;4.718;2022-11-20T03:06:54;18.80;50.70
13928;DHT22;7036;50.834;4.718;2022-11-20T03:09:22;18.80;50.80
13928;DHT22;7036;50.834;4.718;2022-11-20T03:11:51;18.80;50.80
13928;DHT22;7036;50.834;4.718;2022-11-20T03:14:18;18.80;50.70
13928;DHT22;7036;50.834;4.718;2022-11-20T03:16:45;18.80;50.70
13928;DHT22;7036;50.834;4.718;2022-11-20T03:19:13;18.80;50.80
13928;DHT22;7036;50.834;4.718;2022-11-20T03:21:40;18.80;50.60
13928;DHT22;7036;50.834;4.718;2022-11-20T03:24:08;18.80;50.80
13928;DHT22;7036;50.834;4.718;2022-11-20T03:26:36;18.80;50.70
13928;DHT22;7036;50.834;4.718;2022-11-20T03:29:03;18.80;50.70
13928;DHT22;7036;50.834;4.718;2022-11-20T03:31:32;18.80;50.80
13928;DHT22;7036;50.834;4.718;2022-11-20T03:33:59;18.80;50.80
13928;DHT22;7036;50.834;4.718;2022-11-20T03:36:27;18.70;50.80
13928;DHT22;7036;50.834;4.718;2022-11-20T03:38:55;18.70;50.80
13928;DHT22;7036;50.834;4.718;2022-11-20T03:41:24;18.70;50.20
13928;DHT22;7036;50.834;4.718;2022-11-20T03:43:52;18.70;50.80
13928;DHT22;7036;50.834;4.718;2022-11-20T03:46:20;18.70;50.80
13928;DHT22;7036;50.834;4.718;2022-11-20T03:48:46;18.70;50.70
13928;DHT22;7036;50.834;4.718;2022-11-20T03:51:15;18.70;50.70
13928;DHT22;7036;50.834;4.718;2022-11-20T03:53:42;18.70;50.60
13928;DHT22;7036;50.834;4.718;2022-11-20T03:56:09;18.70;50.70
13928;DHT22;7036;50.834;4.718;2022-11-20T03:58:46;18.70;50.70
13928;DHT22;7036;50.834;4.718;2022-11-20T04:01:15;18.70;50.70
13928;DHT22;7036;50.834;4.718;2022-11-20T04:03:42;18.70;50.90
13928;DHT22;7036;50.834;4.718;2022-11-20T04:06:11;18.70;50.90
13928;DHT22;7036;50.834;4.718;2022-11-20T04:08:40;18.70;50.90
13928;DHT22;7036;50.834;4.718;2022-11-20T04:11:13;18.70;50.80
13928;DHT22;7036;50.834;4.718;2022-11-20T04:13:39;18.70;50.70
13928;DHT22;7036;50.834;4.718;2022-11-20T04:16:07;18.60;50.90
13928;DHT22;7036;50.834;4.718;2022-11-20T04:18:35;18.60;50.90
13928;DHT22;7036;50.834;4.718;2022-11-20T04:21:03;18.60;50.90
13928;DHT22;7036;50.834;4.718;2022-11-20T04:23:30;18.60;51.00
13928;DHT22;7036;50.834;4.718;2022-11-20T04:26:05;18.60;51.00
13928;DHT22;7036;50.834;4.718;2022-11-20T04:28:31;18.60;50.90
13928;DHT22;7036;50.834;4.718;2022-11-20T04:31:07;18.60;51.70
13928;DHT22;7036;50.834;4.718;2022-11-20T04:33:32;18.60;50.90
13928;DHT22;7036;50.834;4.718;2022-11-20T04:36:04;18.60;51.00
13928;DHT22;7036;50.834;4.718;2022-11-20T04:38:30;18.60;50.90
13928;DHT22;7036;50.834;4.718;2022-11-20T04:41:01;18.60;50.90
13928;DHT22;7036;50.834;4.718;2022-11-20T04:43:27;18.60;51.00
13928;DHT22;7036;50.834;4.718;2022-11-20T04:45:55;18.60;51.00
13928;DHT22;7036;50.834;4.718;2022-11-20T04:48:23;18.50;51.00
13928;DHT22;7036;50.834;4.718;2022-11-20T04:50:50;18.60;50.90
13928;DHT22;7036;50.834;4.718;2022-11-20T04:53:18;18.50;51.00
13928;DHT22;7036;50.834;4.718;2022-11-20T04:55:46;18.50;51.00
13928;DHT22;7036;50.834;4.718;2022-11-20T04:58:14;18.50;51.00
13928;DHT22;7036;50.834;4.718;2022-11-20T05:00:42;18.50;51.00
13928;DHT22;7036;50.834;4.718;2022-11-20T05:03:10;18.50;51.60
13928;DHT22;7036;50.834;4.718;2022-11-20T05:05:37;18.50;50.90
13928;DHT22;7036;50.834;4.718;2022-11-20T05:08:05;18.50;51.10
13928;DHT22;7036;50.834;4.718;2022-11-20T05:10:32;18.50;50.90
13928;DHT22;7036;50.834;4.718;2022-11-20T05:12:59;18.50;51.00
13928;DHT22;7036;50.834;4.718;2022-11-20T05:15:27;18.50;50.60
13928;DHT22;7036;50.834;4.718;2022-11-20T05:17:55;18.50;51.10
13928;DHT22;7036;50.834;4.718;2022-11-20T05:20:23;18.50;51.00
13928;DHT22;7036;50.834;4.718;2022-11-20T05:22:50;18.50;50.90
13928;DHT22;7036;50.834;4.718;2022-11-20T05:25:17;18.50;51.00
13928;DHT22;7036;50.834;4.718;2022-11-20T05:27:45;18.40;51.00
13928;DHT22;7036;50.834;4.718;2022-11-20T05:30:13;18.40;50.90
13928;DHT22;7036;50.834;4.718;2022-11-20T05:32:41;18.40;51.00
13928;DHT22;7036;50.834;4.718;2022-11-20T05:35:08;18.40;50.90
13928;DHT22;7036;50.834;4.718;2022-11-20T05:37:35;18.50;51.00
13928;DHT22;7036;50.834;4.718;2022-11-20T05:40:03;18.40;51.00
13928;DHT22;7036;50.834;4.718;2022-11-20T05:42:30;18.40;50.90
13928;DHT22;7036;50.834;4.718;2022-11-20T05:44:58;18.40;50.90
13928;DHT22;7036;50.834;4.718;2022-11-20T05:47:26;18.40;51.10
13928;DHT22;7036;50.834;4.718;2022-11-20T05:49:54;18.40;51.10
13928;DHT22;7036;50.834;4.718;2022-11-20T05:52:21;18.40;51.00
13928;DHT22;7036;50.834;4.718;2022-11-20T05:54:49;18.40;51.10
13928;DHT22;7036;50.834;4.718;2022-11-20T05:57:16;18.40;51.00
13928;DHT22;7036;50.834;4.718;2022-11-20T05:59:43;18.40;51.00
13928;DHT22;7036;50.834;4.718;2022-11-20T06:02:11;18.40;51.10
13928;DHT22;7036;50.834;4.718;2022-11-20T06:04:39;18.40;51.20
13928;DHT22;7036;50.834;4.718;2022-11-20T06:07:07;18.40;51.00
13928;DHT22;7036;50.834;4.718;2022-11-20T06:09:34;18.40;51.00
13928;DHT22;7036;50.834;4.718;2022-11-20T06:12:01;18.40;51.10
13928;DHT22;7036;50.834;4.718;2022-11-20T06:14:28;18.40;51.00
13928;DHT22;7036;50.834;4.718;2022-11-20T06:16:55;18.50;51.00
13928;DHT22;7036;50.834;4.718;2022-11-20T06:19:22;18.60;50.90
13928;DHT22;7036;50.834;4.718;2022-11-20T06:21:50;18.70;50.90
13928;DHT22;7036;50.834;4.718;2022-11-20T06:24:18;18.80;51.20
13928;DHT22;7036;50.834;4.718;2022-11-20T06:26:46;18.90;51.20
13928;DHT22;7036;50.834;4.718;2022-11-20T06:29:14;18.90;51.10
13928;DHT22;7036;50.834;4.718;2022-11-20T06:31:41;19.00;51.10
13928;DHT22;7036;50.834;4.718;2022-11-20T06:34:09;19.00;51.00
13928;DHT22;7036;50.834;4.718;2022-11-20T06:36:37;19.10;51.00
13928;DHT22;7036;50.834;4.718;2022-11-20T06:39:05;19.10;50.90
13928;DHT22;7036;50.834;4.718;2022-11-20T06:41:33;19.10;50.90
13928;DHT22;7036;50.834;4.718;2022-11-20T06:44:00;19.10;50.70
13928;DHT22;7036;50.834;4.718;2022-11-20T06:46:27;19.10;50.70
13928;DHT22;7036;50.834;4.718;2022-11-20T06:48:55;19.20;50.80
13928;DHT22;7036;50.834;4.718;2022-11-20T06:51:23;19.20;50.80
13928;DHT22;7036;50.834;4.718;2022-11-20T06:53:50;19.20;50.70
13928;DHT22;7036;50.834;4.718;2022-11-20T06:56:17;19.20;50.60
13928;DHT22;7036;50.834;4.718;2022-11-20T06:58:45;19.20;50.60
13928;DHT22;7036;50.834;4.718;2022-11-20T07:01:13;19.20;50.50
13928;DHT22;7036;50.834;4.718;2022-11-20T07:03:40;19.20;50.70
13928;DHT22;7036;50.834;4.718;2022-11-20T07:06:07;19.20;50.50
13928;DHT22;7036;50.834;4.718;2022-11-20T07:08:34;19.20;50.50
13928;DHT22;7036;50.834;4.718;2022-11-20T07:11:03;19.20;50.50
13928;DHT22;7036;50.834;4.718;2022-11-20T07:13:28;19.30;50.50
13928;DHT22;7036;50.834;4.718;2022-11-20T07:15:59;19.20;50.40
13928;DHT22;7036;50.834;4.718;2022-11-20T07:18:23;19.20;50.30
13928;DHT22;7036;50.834;4.718;2022-11-20T07:20:51;19.20;50.30
13928;DHT22;7036;50.834;4.718;2022-11-20T07:23:19;19.20;50.30
13928;DHT22;7036;50.834;4.718;2022-11-20T07:25:47;19.20;50.20
13928;DHT22;7036;50.834;4.718;2022-11-20T07:28:14;19.20;50.00
13928;DHT22;7036;50.834;4.718;2022-11-20T07:30:41;19.20;50.10
13928;DHT22;7036;50.834;4.718;2022-11-20T07:33:08;19.30;50.00
13928;DHT22;7036;50.834;4.718;2022-11-20T07:35:35;19.30;50.00
13928;DHT22;7036;50.834;4.718;2022-11-20T07:38:03;19.30;50.00
13928;DHT22;7036;50.834;4.718;2022-11-20T07:40:31;19.30;50.30
13928;DHT22;7036;50.834;4.718;2022-11-20T07:42:58;19.30;50.20
13928;DHT22;7036;50.834;4.718;2022-11-20T07:45:25;19.30;50.30
13928;DHT22;7036;50.834;4.718;2022-11-20T07:47:53;19.40;50.50
13928;DHT22;7036;50.834;4.718;2022-11-20T07:50:21;19.30;50.30
13928;DHT22;7036;50.834;4.718;2022-11-20T07:52:48;19.40;50.30
13928;DHT22;7036;50.834;4.718;2022-11-20T07:55:16;19.40;50.40
13928;DHT22;7036;50.834;4.718;2022-11-20T07:57:44;19.40;50.40
13928;DHT22;7036;50.834;4.718;2022-11-20T08:00:12;19.40;50.40
13928;DHT22;7036;50.834;4.718;2022-11-20T08:02:39;19.40;50.30
13928;DHT22;7036;50.834;4.718;2022-11-20T08:05:06;19.40;50.20
13928;DHT22;7036;50.834;4.718;2022-11-20T08:07:39;19.40;50.20
13928;DHT22;7036;50.834;4.718;2022-11-20T08:10:06;19.40;50.20
13928;DHT22;7036;50.834;4.718;2022-11-20T08:12:34;19.40;50.50
13928;DHT22;7036;50.834;4.718;2022-11-20T08:15:19;19.40;50.50
13928;DHT22;7036;50.834;4.718;2022-11-20T08:17:46;19.40;50.60
13928;DHT22;7036;50.834;4.718;2022-11-20T08:20:13;19.40;50.70
13928;DHT22;7036;50.834;4.718;2022-11-20T08:22:41;19.40;50.50
13928;DHT22;7036;50.834;4.718;2022-11-20T08:25:08;19.40;50.70
13928;DHT22;7036;50.834;4.718;2022-11-20T08:27:35;19.40;50.80
13928;DHT22;7036;50.834;4.718;2022-11-20T08:30:03;19.40;50.60
13928;DHT22;7036;50.834;4.718;2022-11-20T08:32:30;19.50;50.60
13928;DHT22;7036;50.834;4.718;2022-11-20T08:34:57;19.40;50.60
13928;DHT22;7036;50.834;4.718;2022-11-20T08:37:24;19.50;50.90
13928;DHT22;7036;50.834;4.718;2022-11-20T08:39:52;19.40;50.60
13928;DHT22;7036;50.834;4.718;2022-11-20T08:42:19;19.50;50.60
13928;DHT22;7036;50.834;4.718;2022-11-20T08:44:46;19.50;50.70
13928;DHT22;7036;50.834;4.718;2022-11-20T08:47:13;19.40;50.50
13928;DHT22;7036;50.834;4.718;2022-11-20T08:49:41;19.50;50.70
13928;DHT22;7036;50.834;4.718;2022-11-20T08:52:09;19.40;50.70
13928;DHT22;7036;50.834;4.718;2022-11-20T08:54:36;19.50;50.70
13928;DHT22;7036;50.834;4.718;2022-11-20T08:57:04;19.50;50.90
13928;DHT22;7036;50.834;4.718;2022-11-20T08:59:31;19.50;51.10
13928;DHT22;7036;50.834;4.718;2022-11-20T09:01:58;19.50;51.20
13928;DHT22;7036;50.834;4.718;2022-11-20T09:04:26;19.60;51.70
13928;DHT22;7036;50.834;4.718;2022-11-20T09:06:53;19.50;51.50
13928;DHT22;7036;50.834;4.718;2022-11-20T09:09:21;19.60;51.80
13928;DHT22;7036;50.834;4.718;2022-11-20T09:11:49;19.60;51.90
13928;DHT22;7036;50.834;4.718;2022-11-20T09:14:17;19.60;51.70
13928;DHT22;7036;50.834;4.718;2022-11-20T09:16:45;19.60;52.70
13928;DHT22;7036;50.834;4.718;2022-11-20T09:19:13;19.60;52.00
13928;DHT22;7036;50.834;4.718;2022-11-20T09:21:41;19.70;52.20
13928;DHT22;7036;50.834;4.718;2022-11-20T09:24:09;19.70;52.20
13928;DHT22;7036;50.834;4.718;2022-11-20T09:26:37;19.60;52.10
13928;DHT22;7036;50.834;4.718;2022-11-20T09:29:04;19.70;52.10
13928;DHT22;7036;50.834;4.718;2022-11-20T09:31:31;19.70;52.30
13928;DHT22;7036;50.834;4.718;2022-11-20T09:33:58;19.70;52.00
13928;DHT22;7036;50.834;4.718;2022-11-20T09:36:26;19.70;51.90
13928;DHT22;7036;50.834;4.718;2022-11-20T09:38:54;19.70;52.00
13928;DHT22;7036;50.834;4.718;2022-11-20T09:41:46;19.70;52.00
13928;DHT22;7036;50.834;4.718;2022-11-20T09:47:10;19.70;52.10
13928;DHT22;7036;50.834;4.718;2022-11-20T09:52:46;19.60;52.10
13928;DHT22;7036;50.834;4.718;2022-11-20T09:55:12;19.70;52.20
13928;DHT22;7036;50.834;4.718;2022-11-20T09:57:40;19.60;52.20
13928;DHT22;7036;50.834;4.718;2022-11-20T10:00:09;19.60;52.20
13928;DHT22;7036;50.834;4.718;2022-11-20T10:02:54;19.70;52.30
13928;DHT22;7036;50.834;4.718;2022-11-20T10:05:21;19.60;52.20
13928;DHT22;7036;50.834;4.718;2022-11-20T10:07:55;19.60;52.30
13928;DHT22;7036;50.834;4.718;2022-11-20T10:10:42;19.60;52.20
13928;DHT22;7036;50.834;4.718;2022-11-20T10:13:15;19.60;52.40
13928;DHT22;7036;50.834;4.718;2022-11-20T10:18:33;19.60;52.20
13928;DHT22;7036;50.834;4.718;2022-11-20T10:21:06;19.50;52.90
13928;DHT22;7036;50.834;4.718;2022-11-20T10:29:13;19.50;52.50
13928;DHT22;7036;50.834;4.718;2022-11-20T10:31:40;19.50;52.50
13928;DHT22;7036;50.834;4.718;2022-11-20T10:34:12;19.50;52.50
13928;DHT22;7036;50.834;4.718;2022-11-20T10:36:36;19.50;52.50
13928;DHT22;7036;50.834;4.718;2022-11-20T10:39:11;19.50;52.60
13928;DHT22;7036;50.834;4.718;2022-11-20T10:41:34;19.40;52.40
13928;DHT22;7036;50.834;4.718;2022-11-20T10:44:37;19.50;52.60
13928;DHT22;7036;50.834;4.718;2022-11-20T10:46:46;19.50;52.50
13928;DHT22;7036;50.834;4.718;2022-11-20T10:49:16;19.50;52.50
13928;DHT22;7036;50.834;4.718;2022-11-20T10:51:57;19.50;52.60
13928;DHT22;7036;50.834;4.718;2022-11-20T10:54:36;19.50;52.60
13928;DHT22;7036;50.834;4.718;2022-11-20T10:57:02;19.60;52.70
13928;DHT22;7036;50.834;4.718;2022-11-20T10:59:45;19.60;52.60
13928;DHT22;7036;50.834;4.718;2022-11-20T11:02:19;19.60;52.50
13928;DHT22;7036;50.834;4.718;2022-11-20T11:04:45;19.60;52.50
13928;DHT22;7036;50.834;4.718;2022-11-20T11:07:15;19.60;52.50
13928;DHT22;7036;50.834;4.718;2022-11-20T11:09:43;19.60;52.70
13928;DHT22;7036;50.834;4.718;2022-11-20T11:12:11;19.60;52.60
13928;DHT22;7036;50.834;4.718;2022-11-20T11:14:43;19.70;52.70
13928;DHT22;7036;50.834;4.718;2022-11-20T11:17:18;19.70;52.60
13928;DHT22;7036;50.834;4.718;2022-11-20T11:19:37;19.70;53.40
13928;DHT22;7036;50.834;4.718;2022-11-20T11:22:05;19.70;52.70
13928;DHT22;7036;50.834;4.718;2022-11-20T11:24:32;19.70;52.60
13928;DHT22;7036;50.834;4.718;2022-11-20T11:27:01;19.70;52.60
13928;DHT22;7036;50.834;4.718;2022-11-20T11:29:27;19.70;52.60
13928;DHT22;7036;50.834;4.718;2022-11-20T11:32:08;19.80;52.70
13928;DHT22;7036;50.834;4.718;2022-11-20T11:34:34;19.70;52.60
13928;DHT22;7036;50.834;4.718;2022-11-20T11:37:01;19.70;52.70
13928;DHT22;7036;50.834;4.718;2022-11-20T11:39:28;19.70;52.60
13928;DHT22;7036;50.834;4.718;2022-11-20T11:41:57;19.80;52.80
13928;DHT22;7036;50.834;4.718;2022-11-20T11:44:25;19.80;52.80
13928;DHT22;7036;50.834;4.718;2022-11-20T11:47:10;19.80;52.60
13928;DHT22;7036;50.834;4.718;2022-11-20T11:49:37;19.80;52.80
13928;DHT22;7036;50.834;4.718;2022-11-20T11:52:11;19.80;52.80
13928;DHT22;7036;50.834;4.718;2022-11-20T11:54:50;19.80;52.70
13928;DHT22;7036;50.834;4.718;2022-11-20T11:57:29;19.80;52.60
13928;DHT22;7036;50.834;4.718;2022-11-20T12:08:15;19.80;52.60
13928;DHT22;7036;50.834;4.718;2022-11-20T12:10:48;19.90;52.70
13928;DHT22;7036;50.834;4.718;2022-11-20T12:16:01;19.90;52.70
13928;DHT22;7036;50.834;4.718;2022-11-20T12:18:29;19.90;52.80
13928;DHT22;7036;50.834;4.718;2022-11-20T12:21:03;19.90;52.80
13928;DHT22;7036;50.834;4.718;2022-11-20T12:26:00;19.90;52.60
13928;DHT22;7036;50.834;4.718;2022-11-20T12:33:45;19.90;52.50
13928;DHT22;7036;50.834;4.718;2022-11-20T12:36:32;19.90;52.60
13928;DHT22;7036;50.834;4.718;2022-11-20T12:38:59;19.90;52.50
13928;DHT22;7036;50.834;4.718;2022-11-20T12:41:56;19.90;52.50
13928;DHT22;7036;50.834;4.718;2022-11-20T12:44:46;19.90;52.50
13928;DHT22;7036;50.834;4.718;2022-11-20T12:53:25;19.90;52.60
13928;DHT22;7036;50.834;4.718;2022-11-20T12:58:33;20.00;53.00
13928;DHT22;7036;50.834;4.718;2022-11-20T13:01:19;20.00;52.90
13928;DHT22;7036;50.834;4.718;2022-11-20T13:03:38;20.00;53.20
13928;DHT22;7036;50.834;4.718;2022-11-20T13:06:17;20.00;53.40
13928;DHT22;7036;50.834;4.718;2022-11-20T13:08:53;20.00;53.50
13928;DHT22;7036;50.834;4.718;2022-11-20T13:11:37;20.10;53.60
13928;DHT22;7036;50.834;4.718;2022-11-20T13:16:37;20.10;53.50
13928;DHT22;7036;50.834;4.718;2022-11-20T13:19:04;20.10;53.50
13928;DHT22;7036;50.834;4.718;2022-11-20T13:21:40;20.10;53.60
13928;DHT22;7036;50.834;4.718;2022-11-20T13:24:25;20.10;53.60
13928;DHT22;7036;50.834;4.718;2022-11-20T13:26:36;20.10;53.60
13928;DHT22;7036;50.834;4.718;2022-11-20T13:29:25;20.10;53.60
13928;DHT22;7036;50.834;4.718;2022-11-20T13:31:34;20.10;53.50
13928;DHT22;7036;50.834;4.718;2022-11-20T13:34:02;20.10;53.60
13928;DHT22;7036;50.834;4.718;2022-11-20T13:36:29;20.10;53.40
13928;DHT22;7036;50.834;4.718;2022-11-20T13:38:55;20.10;53.40
13928;DHT22;7036;50.834;4.718;2022-11-20T13:41:36;20.10;53.40
13928;DHT22;7036;50.834;4.718;2022-11-20T13:44:04;20.10;53.50
13928;DHT22;7036;50.834;4.718;2022-11-20T13:46:45;20.10;53.40
13928;DHT22;7036;50.834;4.718;2022-11-20T13:49:09;20.10;53.40
13928;DHT22;7036;50.834;4.718;2022-11-20T13:51:51;20.10;53.30
13928;DHT22;7036;50.834;4.718;2022-11-20T13:59:58;20.10;53.30
13928;DHT22;7036;50.834;4.718;2022-11-20T14:02:27;20.10;53.40
13928;DHT22;7036;50.834;4.718;2022-11-20T14:04:54;20.10;53.40
13928;DHT22;7036;50.834;4.718;2022-11-20T14:07:20;20.10;53.40
13928;DHT22;7036;50.834;4.718;2022-11-20T14:09:54;20.10;53.60
13928;DHT22;7036;50.834;4.718;2022-11-20T14:12:22;20.10;53.50
13928;DHT22;7036;50.834;4.718;2022-11-20T14:14:48;20.10;53.40
13928;DHT22;7036;50.834;4.718;2022-11-20T14:19:44;20.10;53.50
13928;DHT22;7036;50.834;4.718;2022-11-20T14:22:22;20.20;53.70
13928;DHT22;7036;50.834;4.718;2022-11-20T14:24:49;20.10;53.40
13928;DHT22;7036;50.834;4.718;2022-11-20T14:27:17;20.10;53.70
13928;DHT22;7036;50.834;4.718;2022-11-20T14:29:44;20.10;53.60
13928;DHT22;7036;50.834;4.718;2022-11-20T14:32:11;20.10;53.60
13928;DHT22;7036;50.834;4.718;2022-11-20T14:34:39;20.10;53.60
13928;DHT22;7036;50.834;4.718;2022-11-20T14:37:09;20.10;53.50
13928;DHT22;7036;50.834;4.718;2022-11-20T14:39:41;20.20;53.70
13928;DHT22;7036;50.834;4.718;2022-11-20T14:42:24;20.20;53.70
13928;DHT22;7036;50.834;4.718;2022-11-20T14:44:32;20.20;53.60
13928;DHT22;7036;50.834;4.718;2022-11-20T14:47:00;20.20;53.60
13928;DHT22;7036;50.834;4.718;2022-11-20T14:49:26;20.20;53.60
13928;DHT22;7036;50.834;4.718;2022-11-20T14:52:09;20.20;53.60
13928;DHT22;7036;50.834;4.718;2022-11-20T14:54:29;20.10;53.50
13928;DHT22;7036;50.834;4.718;2022-11-20T14:56:58;20.20;53.60
13928;DHT22;7036;50.834;4.718;2022-11-20T14:59:25;20.20;53.50
13928;DHT22;7036;50.834;4.718;2022-11-20T15:01:56;20.10;53.40
13928;DHT22;7036;50.834;4.718;2022-11-20T15:04:21;20.20;53.40
13928;DHT22;7036;50.834;4.718;2022-11-20T15:06:50;20.20;53.50
13928;DHT22;7036;50.834;4.718;2022-11-20T15:09:17;20.20;53.50
13928;DHT22;7036;50.834;4.718;2022-11-20T15:11:52;20.20;53.50
13928;DHT22;7036;50.834;4.718;2022-11-20T15:14:18;20.20;53.40
13928;DHT22;7036;50.834;4.718;2022-11-20T15:16:46;20.20;53.50
13928;DHT22;7036;50.834;4.718;2022-11-20T15:19:16;20.20;53.40
13928;DHT22;7036;50.834;4.718;2022-11-20T15:21:41;20.20;52.90
13928;DHT22;7036;50.834;4.718;2022-11-20T15:24:09;20.20;53.40
13928;DHT22;7036;50.834;4.718;2022-11-20T15:26:37;20.20;53.40
13928;DHT22;7036;50.834;4.718;2022-11-20T15:29:06;20.20;53.40
13928;DHT22;7036;50.834;4.718;2022-11-20T15:31:33;20.20;53.40
13928;DHT22;7036;50.834;4.718;2022-11-20T15:34:01;20.20;53.40
13928;DHT22;7036;50.834;4.718;2022-11-20T15:36:30;20.20;53.40
13928;DHT22;7036;50.834;4.718;2022-11-20T15:38:56;20.20;53.30
13928;DHT22;7036;50.834;4.718;2022-11-20T15:41:24;20.20;53.40
13928;DHT22;7036;50.834;4.718;2022-11-20T15:43:51;20.20;53.20
13928;DHT22;7036;50.834;4.718;2022-11-20T15:46:23;20.20;53.30
13928;DHT22;7036;50.834;4.718;2022-11-20T15:48:50;20.20;53.30
13928;DHT22;7036;50.834;4.718;2022-11-20T15:51:30;20.20;53.20
13928;DHT22;7036;50.834;4.718;2022-11-20T15:54:32;20.20;53.20
13928;DHT22;7036;50.834;4.718;2022-11-20T15:57:00;20.20;53.20
13928;DHT22;7036;50.834;4.718;2022-11-20T15:59:28;20.20;53.30
13928;DHT22;7036;50.834;4.718;2022-11-20T16:02:12;20.20;53.20
13928;DHT22;7036;50.834;4.718;2022-11-20T16:04:36;20.20;53.20
13928;DHT22;7036;50.834;4.718;2022-11-20T16:07:04;20.20;53.90
13928;DHT22;7036;50.834;4.718;2022-11-20T16:09:31;20.20;53.10
13928;DHT22;7036;50.834;4.718;2022-11-20T16:11:59;20.30;54.00
13928;DHT22;7036;50.834;4.718;2022-11-20T16:14:27;20.30;53.20
13928;DHT22;7036;50.834;4.718;2022-11-20T16:17:12;20.30;53.10
13928;DHT22;7036;50.834;4.718;2022-11-20T16:19:40;20.30;53.20
13928;DHT22;7036;50.834;4.718;2022-11-20T16:22:10;20.30;53.30
13928;DHT22;7036;50.834;4.718;2022-11-20T16:24:36;20.30;53.10
13928;DHT22;7036;50.834;4.718;2022-11-20T16:27:04;20.30;53.20
13928;DHT22;7036;50.834;4.718;2022-11-20T16:29:32;20.30;53.20
13928;DHT22;7036;50.834;4.718;2022-11-20T16:32:00;20.30;53.10
13928;DHT22;7036;50.834;4.718;2022-11-20T16:34:27;20.30;52.90
13928;DHT22;7036;50.834;4.718;2022-11-20T16:36:54;20.30;53.00
13928;DHT22;7036;50.834;4.718;2022-11-20T16:39:22;20.20;53.10
13928;DHT22;7036;50.834;4.718;2022-11-20T16:41:50;20.20;53.20
13928;DHT22;7036;50.834;4.718;2022-11-20T16:44:18;20.20;53.10
13928;DHT22;7036;50.834;4.718;2022-11-20T16:46:46;20.20;53.10
13928;DHT22;7036;50.834;4.718;2022-11-20T16:49:14;20.20;53.10